sensor_id;sensor_type;location;lat;lon;timestamp;temperature;humidity
48043;DHT22;33988;47.992;8.820;2023-08-08T00:02:18;18.40;52.70
48043;DHT22;33988;47.992;8.820;2023-08-08T00:04:45;18.40;52.70
48043;DHT22;33988;47.992;8.820;2023-08-08T00:07:12;18.40;52.70
48043;DHT22;33988;47.992;8.820;2023-08-08T00:09:39;18.40;52.70
48043;DHT22;33988;47.992;8.820;2023-08-08T00:12:06;18.40;52.80
48043;DHT22;33988;47.992;8.820;2023-08-08T00:14:33;18.30;52.70
48043;DHT22;33988;47.992;8.820;2023-08-08T00:17:01;18.40;53.40
48043;DHT22;33988;47.992;8.820;2023-08-08T00:19:30;18.30;52.80
48043;DHT22;33988;47.992;8.820;2023-08-08T00:21:59;18.40;52.80
48043;DHT22;33988;47.992;8.820;2023-08-08T00:24:26;18.30;52.70
48043;DHT22;33988;47.992;8.820;2023-08-08T00:26:53;18.30;52.70
48043;DHT22;33988;47.992;8.820;2023-08-08T00:29:20;18.30;52.70
48043;DHT22;33988;47.992;8.820;2023-08-08T00:31:50;18.40;52.70
48043;DHT22;33988;47.992;8.820;2023-08-08T00:34:16;18.30;52.70
48043;DHT22;33988;47.992;8.820;2023-08-08T00:36:43;18.30;52.70
48043;DHT22;33988;47.992;8.820;2023-08-08T00:39:13;18.30;52.70
48043;DHT22;33988;47.992;8.820;2023-08-08T00:41:40;18.20;52.60
48043;DHT22;33988;47.992;8.820;2023-08-08T00:44:07;18.30;52.70
48043;DHT22;33988;47.992;8.820;2023-08-08T00:46:34;18.30;52.70
48043;DHT22;33988;47.992;8.820;2023-08-08T00:49:01;18.20;52.60
48043;DHT22;33988;47.992;8.820;2023-08-08T00:51:31;18.20;52.70
48043;DHT22;33988;47.992;8.820;2023-08-08T00:54:01;18.20;52.60
48043;DHT22;33988;47.992;8.820;2023-08-08T00:56:32;18.20;52.60
48043;DHT22;33988;47.992;8.820;2023-08-08T00:58:59;18.10;52.50
48043;DHT22;33988;47.992;8.820;2023-08-08T01:01:26;18.10;52.50
48043;DHT22;33988;47.992;8.820;2023-08-08T01:03:53;18.10;52.50
48043;DHT22;33988;47.992;8.820;2023-08-08T01:11:59;18.00;52.40
48043;DHT22;33988;47.992;8.820;2023-08-08T01:14:29;18.00;52.40
48043;DHT22;33988;47.992;8.820;2023-08-08T01:16:57;18.00;52.40
48043;DHT22;33988;47.992;8.820;2023-08-08T01:19:28;18.00;52.40
48043;DHT22;33988;47.992;8.820;2023-08-08T01:22:01;17.90;52.40
48043;DHT22;33988;47.992;8.820;2023-08-08T01:24:30;17.90;53.20
48043;DHT22;33988;47.992;8.820;2023-08-08T01:27:00;17.90;52.60
48043;DHT22;33988;47.992;8.820;2023-08-08T01:29:27;17.90;52.50
48043;DHT22;33988;47.992;8.820;2023-08-08T01:31:55;17.90;52.50
48043;DHT22;33988;47.992;8.820;2023-08-08T01:34:23;17.90;52.50
48043;DHT22;33988;47.992;8.820;2023-08-08T01:37:00;17.80;52.40
48043;DHT22;33988;47.992;8.820;2023-08-08T01:39:32;17.80;52.40
48043;DHT22;33988;47.992;8.820;2023-08-08T01:42:06;17.80;52.50
48043;DHT22;33988;47.992;8.820;2023-08-08T01:44:33;17.80;52.40
48043;DHT22;33988;47.992;8.820;2023-08-08T01:47:01;17.70;52.40
48043;DHT22;33988;47.992;8.820;2023-08-08T01:49:28;17.70;52.50
48043;DHT22;33988;47.992;8.820;2023-08-08T01:51:55;17.70;52.50
48043;DHT22;33988;47.992;8.820;2023-08-08T01:54:27;17.70;52.60
48043;DHT22;33988;47.992;8.820;2023-08-08T01:56:54;17.60;52.60
48043;DHT22;33988;47.992;8.820;2023-08-08T01:59:21;17.60;52.60
48043;DHT22;33988;47.992;8.820;2023-08-08T02:01:49;17.60;52.70
48043;DHT22;33988;47.992;8.820;2023-08-08T02:04:19;17.50;52.70
48043;DHT22;33988;47.992;8.820;2023-08-08T02:06:48;17.50;52.70
48043;DHT22;33988;47.992;8.820;2023-08-08T02:09:15;17.50;52.70
48043;DHT22;33988;47.992;8.820;2023-08-08T02:11:45;17.40;52.70
48043;DHT22;33988;47.992;8.820;2023-08-08T02:14:14;17.50;52.70
48043;DHT22;33988;47.992;8.820;2023-08-08T02:16:40;17.40;52.70
48043;DHT22;33988;47.992;8.820;2023-08-08T02:19:09;17.40;52.70
48043;DHT22;33988;47.992;8.820;2023-08-08T02:21:36;17.40;52.70
48043;DHT22;33988;47.992;8.820;2023-08-08T02:24:05;17.40;52.80
48043;DHT22;33988;47.992;8.820;2023-08-08T02:26:32;17.40;52.80
48043;DHT22;33988;47.992;8.820;2023-08-08T02:29:04;17.40;52.80
48043;DHT22;33988;47.992;8.820;2023-08-08T02:31:30;17.30;52.70
48043;DHT22;33988;47.992;8.820;2023-08-08T02:34:00;17.30;52.80
48043;DHT22;33988;47.992;8.820;2023-08-08T02:36:27;17.30;52.80
48043;DHT22;33988;47.992;8.820;2023-08-08T02:38:57;17.30;52.80
48043;DHT22;33988;47.992;8.820;2023-08-08T02:41:24;17.30;52.80
48043;DHT22;33988;47.992;8.820;2023-08-08T02:43:51;17.30;52.80
48043;DHT22;33988;47.992;8.820;2023-08-08T02:46:21;17.30;52.90
48043;DHT22;33988;47.992;8.820;2023-08-08T02:48:48;17.30;52.90
48043;DHT22;33988;47.992;8.820;2023-08-08T02:51:15;17.30;52.90
48043;DHT22;33988;47.992;8.820;2023-08-08T02:53:41;17.20;52.90
48043;DHT22;33988;47.992;8.820;2023-08-08T02:56:11;17.30;53.00
48043;DHT22;33988;47.992;8.820;2023-08-08T02:58:38;17.20;53.60
48043;DHT22;33988;47.992;8.820;2023-08-08T03:01:05;17.20;52.90
48043;DHT22;33988;47.992;8.820;2023-08-08T03:03:32;17.20;53.00
48043;DHT22;33988;47.992;8.820;2023-08-08T03:06:00;17.20;53.00
48043;DHT22;33988;47.992;8.820;2023-08-08T03:08:28;17.20;53.00
48043;DHT22;33988;47.992;8.820;2023-08-08T03:10:58;17.20;53.00
48043;DHT22;33988;47.992;8.820;2023-08-08T03:13:25;17.20;53.00
48043;DHT22;33988;47.992;8.820;2023-08-08T03:15:52;17.20;53.00
48043;DHT22;33988;47.992;8.820;2023-08-08T03:18:19;17.20;53.10
48043;DHT22;33988;47.992;8.820;2023-08-08T03:20:48;17.20;53.10
48043;DHT22;33988;47.992;8.820;2023-08-08T03:23:18;17.20;53.10
48043;DHT22;33988;47.992;8.820;2023-08-08T03:25:45;17.20;53.10
48043;DHT22;33988;47.992;8.820;2023-08-08T03:28:12;17.10;53.10
48043;DHT22;33988;47.992;8.820;2023-08-08T03:30:40;17.10;53.10
48043;DHT22;33988;47.992;8.820;2023-08-08T03:33:09;17.10;53.20
48043;DHT22;33988;47.992;8.820;2023-08-08T03:35:41;17.10;53.20
48043;DHT22;33988;47.992;8.820;2023-08-08T03:38:10;17.10;53.20
48043;DHT22;33988;47.992;8.820;2023-08-08T03:40:37;17.10;53.90
48043;DHT22;33988;47.992;8.820;2023-08-08T03:43:06;17.10;53.20
48043;DHT22;33988;47.992;8.820;2023-08-08T03:45:36;17.10;53.20
48043;DHT22;33988;47.992;8.820;2023-08-08T03:48:05;17.10;53.20
48043;DHT22;33988;47.992;8.820;2023-08-08T03:50:32;16.80;53.30
48043;DHT22;33988;47.992;8.820;2023-08-08T03:52:59;17.00;53.20
48043;DHT22;33988;47.992;8.820;2023-08-08T03:55:26;17.00;53.20
48043;DHT22;33988;47.992;8.820;2023-08-08T03:57:53;17.00;53.20
48043;DHT22;33988;47.992;8.820;2023-08-08T04:00:22;17.00;53.20
48043;DHT22;33988;47.992;8.820;2023-08-08T04:02:52;17.00;53.20
48043;DHT22;33988;47.992;8.820;2023-08-08T04:05:19;17.00;53.20
48043;DHT22;33988;47.992;8.820;2023-08-08T04:07:46;17.00;53.30
48043;DHT22;33988;47.992;8.820;2023-08-08T04:10:12;17.00;53.30
48043;DHT22;33988;47.992;8.820;2023-08-08T04:12:42;17.00;53.40
48043;DHT22;33988;47.992;8.820;2023-08-08T04:15:09;17.00;53.40
48043;DHT22;33988;47.992;8.820;2023-08-08T04:17:42;17.00;53.50
48043;DHT22;33988;47.992;8.820;2023-08-08T04:20:09;17.00;53.60
48043;DHT22;33988;47.992;8.820;2023-08-08T04:22:39;17.00;53.60
48043;DHT22;33988;47.992;8.820;2023-08-08T04:25:08;17.00;53.60
48043;DHT22;33988;47.992;8.820;2023-08-08T04:27:36;17.00;53.70
48043;DHT22;33988;47.992;8.820;2023-08-08T04:30:03;17.00;53.70
48043;DHT22;33988;47.992;8.820;2023-08-08T04:32:30;17.00;53.70
48043;DHT22;33988;47.992;8.820;2023-08-08T04:34:58;17.00;53.80
48043;DHT22;33988;47.992;8.820;2023-08-08T04:37:25;17.00;53.90
48043;DHT22;33988;47.992;8.820;2023-08-08T04:39:52;17.00;53.90
48043;DHT22;33988;47.992;8.820;2023-08-08T04:42:19;17.00;54.00
48043;DHT22;33988;47.992;8.820;2023-08-08T04:44:46;17.00;54.00
48043;DHT22;33988;47.992;8.820;2023-08-08T04:47:15;17.00;54.10
48043;DHT22;33988;47.992;8.820;2023-08-08T04:49:42;17.00;54.10
48043;DHT22;33988;47.992;8.820;2023-08-08T04:52:09;17.00;54.10
48043;DHT22;33988;47.992;8.820;2023-08-08T04:54:38;17.00;54.10
48043;DHT22;33988;47.992;8.820;2023-08-08T04:57:05;16.90;54.10
48043;DHT22;33988;47.992;8.820;2023-08-08T04:59:35;16.90;54.20
48043;DHT22;33988;47.992;8.820;2023-08-08T05:02:02;16.90;54.20
48043;DHT22;33988;47.992;8.820;2023-08-08T05:04:36;16.90;54.30
48043;DHT22;33988;47.992;8.820;2023-08-08T05:07:06;16.90;54.30
48043;DHT22;33988;47.992;8.820;2023-08-08T05:09:33;16.90;54.30
48043;DHT22;33988;47.992;8.820;2023-08-08T05:12:01;16.90;54.30
48043;DHT22;33988;47.992;8.820;2023-08-08T05:14:29;16.90;54.30
48043;DHT22;33988;47.992;8.820;2023-08-08T05:16:58;16.90;54.40
48043;DHT22;33988;47.992;8.820;2023-08-08T05:19:25;16.90;54.40
48043;DHT22;33988;47.992;8.820;2023-08-08T05:21:53;17.00;54.40
48043;DHT22;33988;47.992;8.820;2023-08-08T05:24:20;17.00;54.50
48043;DHT22;33988;47.992;8.820;2023-08-08T05:26:47;17.00;54.50
48043;DHT22;33988;47.992;8.820;2023-08-08T05:29:14;17.00;54.50
48043;DHT22;33988;47.992;8.820;2023-08-08T05:31:41;17.10;54.50
48043;DHT22;33988;47.992;8.820;2023-08-08T05:34:08;17.10;54.50
48043;DHT22;33988;47.992;8.820;2023-08-08T05:36:34;17.10;54.40
48043;DHT22;33988;47.992;8.820;2023-08-08T05:39:04;17.10;54.40
48043;DHT22;33988;47.992;8.820;2023-08-08T05:41:33;17.10;54.40
48043;DHT22;33988;47.992;8.820;2023-08-08T05:44:00;17.20;54.40
48043;DHT22;33988;47.992;8.820;2023-08-08T05:46:27;17.20;54.50
48043;DHT22;33988;47.992;8.820;2023-08-08T05:48:54;17.20;54.40
48043;DHT22;33988;47.992;8.820;2023-08-08T05:51:23;17.30;54.50
48043;DHT22;33988;47.992;8.820;2023-08-08T05:53:52;17.30;54.50
48043;DHT22;33988;47.992;8.820;2023-08-08T05:56:19;17.30;54.50
48043;DHT22;33988;47.992;8.820;2023-08-08T05:58:46;17.30;54.40
48043;DHT22;33988;47.992;8.820;2023-08-08T06:01:15;17.40;54.50
48043;DHT22;33988;47.992;8.820;2023-08-08T06:03:43;17.40;54.50
48043;DHT22;33988;47.992;8.820;2023-08-08T06:06:10;17.40;54.60
48043;DHT22;33988;47.992;8.820;2023-08-08T06:08:39;17.50;54.60
48043;DHT22;33988;47.992;8.820;2023-08-08T06:11:09;17.50;54.70
48043;DHT22;33988;47.992;8.820;2023-08-08T06:13:38;17.50;54.80
48043;DHT22;33988;47.992;8.820;2023-08-08T06:16:06;17.60;54.90
48043;DHT22;33988;47.992;8.820;2023-08-08T06:18:33;17.70;54.90
48043;DHT22;33988;47.992;8.820;2023-08-08T06:21:01;17.70;54.90
48043;DHT22;33988;47.992;8.820;2023-08-08T06:23:28;17.80;55.00
48043;DHT22;33988;47.992;8.820;2023-08-08T06:25:58;17.80;55.00
48043;DHT22;33988;47.992;8.820;2023-08-08T06:28:25;17.90;55.10
48043;DHT22;33988;47.992;8.820;2023-08-08T06:30:52;17.90;55.10
48043;DHT22;33988;47.992;8.820;2023-08-08T06:33:22;18.00;55.20
48043;DHT22;33988;47.992;8.820;2023-08-08T06:35:51;18.00;55.30
48043;DHT22;33988;47.992;8.820;2023-08-08T06:38:18;18.10;55.40
48043;DHT22;33988;47.992;8.820;2023-08-08T06:40:45;18.20;55.50
48043;DHT22;33988;47.992;8.820;2023-08-08T06:43:12;18.20;55.50
48043;DHT22;33988;47.992;8.820;2023-08-08T06:45:40;18.30;55.60
48043;DHT22;33988;47.992;8.820;2023-08-08T06:48:09;18.40;55.70
48043;DHT22;33988;47.992;8.820;2023-08-08T06:50:37;18.50;55.70
48043;DHT22;33988;47.992;8.820;2023-08-08T06:53:04;18.60;55.80
48043;DHT22;33988;47.992;8.820;2023-08-08T06:55:33;18.70;55.80
48043;DHT22;33988;47.992;8.820;2023-08-08T06:58:00;18.80;55.80
48043;DHT22;33988;47.992;8.820;2023-08-08T07:00:27;18.90;55.80
48043;DHT22;33988;47.992;8.820;2023-08-08T07:02:55;19.00;55.80
48043;DHT22;33988;47.992;8.820;2023-08-08T07:05:27;19.20;55.80
48043;DHT22;33988;47.992;8.820;2023-08-08T07:07:55;19.30;55.90
48043;DHT22;33988;47.992;8.820;2023-08-08T07:10:24;19.50;55.90
48043;DHT22;33988;47.992;8.820;2023-08-08T07:12:51;19.60;56.00
48043;DHT22;33988;47.992;8.820;2023-08-08T07:15:22;19.80;55.90
48043;DHT22;33988;47.992;8.820;2023-08-08T07:17:49;19.90;55.70
48043;DHT22;33988;47.992;8.820;2023-08-08T07:20:16;20.20;55.70
48043;DHT22;33988;47.992;8.820;2023-08-08T07:22:44;20.30;55.70
48043;DHT22;33988;47.992;8.820;2023-08-08T07:25:13;20.50;55.70
48043;DHT22;33988;47.992;8.820;2023-08-08T07:27:43;20.70;55.50
48043;DHT22;33988;47.992;8.820;2023-08-08T07:30:10;20.90;55.50
48043;DHT22;33988;47.992;8.820;2023-08-08T07:32:40;21.10;55.20
48043;DHT22;33988;47.992;8.820;2023-08-08T07:35:07;21.30;55.10
48043;DHT22;33988;47.992;8.820;2023-08-08T07:37:35;21.40;54.80
48043;DHT22;33988;47.992;8.820;2023-08-08T07:40:15;21.60;54.50
48043;DHT22;33988;47.992;8.820;2023-08-08T07:42:46;21.80;54.10
48043;DHT22;33988;47.992;8.820;2023-08-08T07:45:18;21.70;54.20
48043;DHT22;33988;47.992;8.820;2023-08-08T07:47:47;22.10;54.20
48043;DHT22;33988;47.992;8.820;2023-08-08T07:50:17;22.30;54.00
48043;DHT22;33988;47.992;8.820;2023-08-08T07:52:45;22.50;53.70
48043;DHT22;33988;47.992;8.820;2023-08-08T07:55:14;22.70;53.10
48043;DHT22;33988;47.992;8.820;2023-08-08T07:57:43;22.80;52.60
48043;DHT22;33988;47.992;8.820;2023-08-08T08:00:10;23.00;52.30
48043;DHT22;33988;47.992;8.820;2023-08-08T08:02:42;23.20;51.90
48043;DHT22;33988;47.992;8.820;2023-08-08T08:05:10;23.30;51.30
48043;DHT22;33988;47.992;8.820;2023-08-08T08:07:38;23.40;51.00
48043;DHT22;33988;47.992;8.820;2023-08-08T08:10:08;23.50;50.90
48043;DHT22;33988;47.992;8.820;2023-08-08T08:12:37;23.70;50.60
48043;DHT22;33988;47.992;8.820;2023-08-08T08:15:04;23.80;50.30
48043;DHT22;33988;47.992;8.820;2023-08-08T08:17:34;23.80;49.90
48043;DHT22;33988;47.992;8.820;2023-08-08T08:20:05;23.90;49.80
48043;DHT22;33988;47.992;8.820;2023-08-08T08:22:37;24.00;50.20
48043;DHT22;33988;47.992;8.820;2023-08-08T08:25:07;24.10;49.60
48043;DHT22;33988;47.992;8.820;2023-08-08T08:27:38;24.20;49.30
48043;DHT22;33988;47.992;8.820;2023-08-08T08:30:06;24.20;49.10
48043;DHT22;33988;47.992;8.820;2023-08-08T08:32:37;24.30;48.70
48043;DHT22;33988;47.992;8.820;2023-08-08T08:35:08;24.00;49.10
48043;DHT22;33988;47.992;8.820;2023-08-08T08:37:39;24.30;48.40
48043;DHT22;33988;47.992;8.820;2023-08-08T08:40:09;24.30;47.90
48043;DHT22;33988;47.992;8.820;2023-08-08T08:42:38;24.30;47.40
48043;DHT22;33988;47.992;8.820;2023-08-08T08:45:06;24.40;47.50
48043;DHT22;33988;47.992;8.820;2023-08-08T08:47:40;24.40;47.70
48043;DHT22;33988;47.992;8.820;2023-08-08T08:50:09;24.40;48.20
48043;DHT22;33988;47.992;8.820;2023-08-08T08:52:36;24.40;47.50
48043;DHT22;33988;47.992;8.820;2023-08-08T08:55:04;24.50;47.70
48043;DHT22;33988;47.992;8.820;2023-08-08T08:57:31;24.50;47.50
48043;DHT22;33988;47.992;8.820;2023-08-08T08:59:59;24.50;47.10
48043;DHT22;33988;47.992;8.820;2023-08-08T09:02:28;24.60;47.00
48043;DHT22;33988;47.992;8.820;2023-08-08T09:04:55;24.60;46.80
48043;DHT22;33988;47.992;8.820;2023-08-08T09:07:25;24.70;46.20
48043;DHT22;33988;47.992;8.820;2023-08-08T09:09:57;24.70;46.20
48043;DHT22;33988;47.992;8.820;2023-08-08T09:12:27;24.70;46.00
48043;DHT22;33988;47.992;8.820;2023-08-08T09:14:56;24.80;45.80
48043;DHT22;33988;47.992;8.820;2023-08-08T09:17:27;24.80;46.00
48043;DHT22;33988;47.992;8.820;2023-08-08T09:20:13;24.70;45.60
48043;DHT22;33988;47.992;8.820;2023-08-08T09:22:42;24.70;45.40
48043;DHT22;33988;47.992;8.820;2023-08-08T09:25:12;24.70;45.40
48043;DHT22;33988;47.992;8.820;2023-08-08T09:27:40;24.70;45.30
48043;DHT22;33988;47.992;8.820;2023-08-08T09:30:10;24.70;45.30
48043;DHT22;33988;47.992;8.820;2023-08-08T09:32:39;24.70;45.40
48043;DHT22;33988;47.992;8.820;2023-08-08T09:35:06;24.60;45.60
48043;DHT22;33988;47.992;8.820;2023-08-08T09:37:38;24.70;45.50
48043;DHT22;33988;47.992;8.820;2023-08-08T09:40:06;24.60;45.70
48043;DHT22;33988;47.992;8.820;2023-08-08T09:42:35;24.70;45.80
48043;DHT22;33988;47.992;8.820;2023-08-08T09:45:03;24.60;45.60
48043;DHT22;33988;47.992;8.820;2023-08-08T09:47:32;24.70;45.60
48043;DHT22;33988;47.992;8.820;2023-08-08T09:50:03;24.70;45.50
48043;DHT22;33988;47.992;8.820;2023-08-08T09:52:34;24.80;45.50
48043;DHT22;33988;47.992;8.820;2023-08-08T09:55:07;24.80;45.30
48043;DHT22;33988;47.992;8.820;2023-08-08T09:57:34;24.80;45.40
48043;DHT22;33988;47.992;8.820;2023-08-08T10:00:04;24.80;45.30
48043;DHT22;33988;47.992;8.820;2023-08-08T10:02:37;24.80;44.90
48043;DHT22;33988;47.992;8.820;2023-08-08T10:05:04;24.90;45.10
48043;DHT22;33988;47.992;8.820;2023-08-08T10:07:31;24.80;45.00
48043;DHT22;33988;47.992;8.820;2023-08-08T10:09:58;24.80;44.90
48043;DHT22;33988;47.992;8.820;2023-08-08T10:12:26;24.80;45.00
48043;DHT22;33988;47.992;8.820;2023-08-08T10:14:53;24.80;45.00
48043;DHT22;33988;47.992;8.820;2023-08-08T10:17:21;24.80;45.30
48043;DHT22;33988;47.992;8.820;2023-08-08T10:19:53;24.80;45.30
48043;DHT22;33988;47.992;8.820;2023-08-08T10:22:24;24.70;45.10
48043;DHT22;33988;47.992;8.820;2023-08-08T10:24:55;24.70;45.00
48043;DHT22;33988;47.992;8.820;2023-08-08T10:27:36;24.60;45.20
48043;DHT22;33988;47.992;8.820;2023-08-08T10:30:09;24.60;46.00
48043;DHT22;33988;47.992;8.820;2023-08-08T10:32:41;24.60;45.70
48043;DHT22;33988;47.992;8.820;2023-08-08T10:35:10;24.60;45.90
48043;DHT22;33988;47.992;8.820;2023-08-08T10:37:40;24.70;46.90
48043;DHT22;33988;47.992;8.820;2023-08-08T10:40:19;24.40;46.60
48043;DHT22;33988;47.992;8.820;2023-08-08T10:42:48;24.70;46.40
48043;DHT22;33988;47.992;8.820;2023-08-08T10:45:16;24.80;46.50
48043;DHT22;33988;47.992;8.820;2023-08-08T10:47:44;24.90;46.10
48043;DHT22;33988;47.992;8.820;2023-08-08T10:50:15;24.90;45.80
48043;DHT22;33988;47.992;8.820;2023-08-08T10:55:25;25.00;45.40
48043;DHT22;33988;47.992;8.820;2023-08-08T10:58:06;25.00;45.20
48043;DHT22;33988;47.992;8.820;2023-08-08T11:00:39;25.00;45.30
48043;DHT22;33988;47.992;8.820;2023-08-08T11:03:07;25.10;45.30
48043;DHT22;33988;47.992;8.820;2023-08-08T11:05:37;25.10;45.50
48043;DHT22;33988;47.992;8.820;2023-08-08T11:08:06;25.10;45.60
48043;DHT22;33988;47.992;8.820;2023-08-08T11:10:39;25.10;45.90
48043;DHT22;33988;47.992;8.820;2023-08-08T11:13:09;25.10;45.50
48043;DHT22;33988;47.992;8.820;2023-08-08T11:15:36;25.20;45.30
48043;DHT22;33988;47.992;8.820;2023-08-08T11:18:06;25.20;45.40
48043;DHT22;33988;47.992;8.820;2023-08-08T11:20:39;25.20;45.30
48043;DHT22;33988;47.992;8.820;2023-08-08T11:23:06;25.20;44.90
48043;DHT22;33988;47.992;8.820;2023-08-08T11:25:40;25.20;44.70
48043;DHT22;33988;47.992;8.820;2023-08-08T11:28:12;25.20;44.70
48043;DHT22;33988;47.992;8.820;2023-08-08T11:30:43;25.20;44.80
48043;DHT22;33988;47.992;8.820;2023-08-08T11:33:17;25.20;45.20
48043;DHT22;33988;47.992;8.820;2023-08-08T11:35:45;25.20;45.20
48043;DHT22;33988;47.992;8.820;2023-08-08T11:38:14;25.20;45.30
48043;DHT22;33988;47.992;8.820;2023-08-08T11:40:42;25.30;45.20
48043;DHT22;33988;47.992;8.820;2023-08-08T11:43:14;25.30;45.30
48043;DHT22;33988;47.992;8.820;2023-08-08T11:45:43;25.30;45.50
48043;DHT22;33988;47.992;8.820;2023-08-08T11:48:10;25.30;45.10
48043;DHT22;33988;47.992;8.820;2023-08-08T11:50:37;25.40;44.70
48043;DHT22;33988;47.992;8.820;2023-08-08T11:53:08;25.50;44.40
48043;DHT22;33988;47.992;8.820;2023-08-08T11:55:41;25.50;44.40
48043;DHT22;33988;47.992;8.820;2023-08-08T11:58:12;25.60;43.90
48043;DHT22;33988;47.992;8.820;2023-08-08T12:00:43;25.60;42.70
48043;DHT22;33988;47.992;8.820;2023-08-08T12:03:12;25.60;42.70
48043;DHT22;33988;47.992;8.820;2023-08-08T12:05:45;25.60;42.90
48043;DHT22;33988;47.992;8.820;2023-08-08T12:08:20;25.60;42.90
48043;DHT22;33988;47.992;8.820;2023-08-08T12:10:51;25.60;42.90
48043;DHT22;33988;47.992;8.820;2023-08-08T12:13:25;25.60;43.00
48043;DHT22;33988;47.992;8.820;2023-08-08T12:15:54;25.70;43.00
48043;DHT22;33988;47.992;8.820;2023-08-08T12:18:24;25.70;43.00
48043;DHT22;33988;47.992;8.820;2023-08-08T12:20:52;25.70;42.70
48043;DHT22;33988;47.992;8.820;2023-08-08T12:23:19;25.60;42.80
48043;DHT22;33988;47.992;8.820;2023-08-08T12:25:46;25.70;42.60
48043;DHT22;33988;47.992;8.820;2023-08-08T12:28:13;25.60;42.50
48043;DHT22;33988;47.992;8.820;2023-08-08T12:30:40;25.70;42.70
48043;DHT22;33988;47.992;8.820;2023-08-08T12:33:08;25.70;42.50
48043;DHT22;33988;47.992;8.820;2023-08-08T12:35:37;25.70;42.30
48043;DHT22;33988;47.992;8.820;2023-08-08T12:38:06;25.70;42.20
48043;DHT22;33988;47.992;8.820;2023-08-08T12:40:36;25.70;42.10
48043;DHT22;33988;47.992;8.820;2023-08-08T12:43:04;25.80;42.20
48043;DHT22;33988;47.992;8.820;2023-08-08T12:45:31;25.80;41.80
48043;DHT22;33988;47.992;8.820;2023-08-08T12:48:03;25.80;41.50
48043;DHT22;33988;47.992;8.820;2023-08-08T12:50:30;25.80;41.60
48043;DHT22;33988;47.992;8.820;2023-08-08T12:52:57;25.90;41.80
48043;DHT22;33988;47.992;8.820;2023-08-08T12:55:24;25.90;41.80
48043;DHT22;33988;47.992;8.820;2023-08-08T12:57:56;25.90;41.80
48043;DHT22;33988;47.992;8.820;2023-08-08T13:00:23;25.90;41.90
48043;DHT22;33988;47.992;8.820;2023-08-08T13:02:50;25.90;41.60
48043;DHT22;33988;47.992;8.820;2023-08-08T13:05:21;25.90;41.20
48043;DHT22;33988;47.992;8.820;2023-08-08T13:07:51;25.90;41.40
48043;DHT22;33988;47.992;8.820;2023-08-08T13:10:18;26.00;41.40
48043;DHT22;33988;47.992;8.820;2023-08-08T13:12:50;25.90;41.00
48043;DHT22;33988;47.992;8.820;2023-08-08T13:15:22;26.00;41.20
48043;DHT22;33988;47.992;8.820;2023-08-08T13:17:49;26.00;41.30
48043;DHT22;33988;47.992;8.820;2023-08-08T13:20:16;26.00;41.10
48043;DHT22;33988;47.992;8.820;2023-08-08T13:22:43;26.00;40.90
48043;DHT22;33988;47.992;8.820;2023-08-08T13:25:13;26.00;41.00
48043;DHT22;33988;47.992;8.820;2023-08-08T13:27:40;26.00;40.90
48043;DHT22;33988;47.992;8.820;2023-08-08T13:30:09;26.00;41.20
48043;DHT22;33988;47.992;8.820;2023-08-08T13:32:36;26.10;40.90
48043;DHT22;33988;47.992;8.820;2023-08-08T13:35:06;26.10;41.00
48043;DHT22;33988;47.992;8.820;2023-08-08T13:37:33;26.10;40.80
48043;DHT22;33988;47.992;8.820;2023-08-08T13:40:02;26.10;40.70
48043;DHT22;33988;47.992;8.820;2023-08-08T13:42:29;26.20;40.80
48043;DHT22;33988;47.992;8.820;2023-08-08T13:44:56;26.20;40.50
48043;DHT22;33988;47.992;8.820;2023-08-08T13:47:23;26.20;40.70
48043;DHT22;33988;47.992;8.820;2023-08-08T13:49:53;26.30;40.70
48043;DHT22;33988;47.992;8.820;2023-08-08T13:52:22;26.30;40.90
48043;DHT22;33988;47.992;8.820;2023-08-08T13:54:52;26.30;40.80
48043;DHT22;33988;47.992;8.820;2023-08-08T13:57:20;26.30;40.50
48043;DHT22;33988;47.992;8.820;2023-08-08T13:59:53;26.30;40.40
48043;DHT22;33988;47.992;8.820;2023-08-08T14:02:23;26.30;40.30
48043;DHT22;33988;47.992;8.820;2023-08-08T14:04:50;26.40;40.40
48043;DHT22;33988;47.992;8.820;2023-08-08T14:07:18;26.40;40.30
48043;DHT22;33988;47.992;8.820;2023-08-08T14:09:51;26.40;39.90
48043;DHT22;33988;47.992;8.820;2023-08-08T14:12:18;26.40;39.90
48043;DHT22;33988;47.992;8.820;2023-08-08T14:14:48;26.40;39.80
48043;DHT22;33988;47.992;8.820;2023-08-08T14:17:15;26.40;40.10
48043;DHT22;33988;47.992;8.820;2023-08-08T14:19:42;26.40;39.90
48043;DHT22;33988;47.992;8.820;2023-08-08T14:22:09;26.40;40.00
48043;DHT22;33988;47.992;8.820;2023-08-08T14:24:40;26.40;40.10
48043;DHT22;33988;47.992;8.820;2023-08-08T14:27:08;26.40;40.10
48043;DHT22;33988;47.992;8.820;2023-08-08T14:29:35;26.50;40.70
48043;DHT22;33988;47.992;8.820;2023-08-08T14:32:02;26.40;40.50
48043;DHT22;33988;47.992;8.820;2023-08-08T14:34:35;26.50;40.60
48043;DHT22;33988;47.992;8.820;2023-08-08T14:37:04;26.40;40.70
48043;DHT22;33988;47.992;8.820;2023-08-08T14:39:33;26.40;40.70
48043;DHT22;33988;47.992;8.820;2023-08-08T14:42:01;26.50;40.90
48043;DHT22;33988;47.992;8.820;2023-08-08T14:44:29;26.50;40.70
48043;DHT22;33988;47.992;8.820;2023-08-08T14:46:59;26.50;40.80
48043;DHT22;33988;47.992;8.820;2023-08-08T14:49:26;26.40;40.60
48043;DHT22;33988;47.992;8.820;2023-08-08T14:51:58;26.40;40.70
48043;DHT22;33988;47.992;8.820;2023-08-08T14:54:30;26.40;41.00
48043;DHT22;33988;47.992;8.820;2023-08-08T14:57:02;26.40;40.90
48043;DHT22;33988;47.992;8.820;2023-08-08T14:59:33;26.40;41.00
48043;DHT22;33988;47.992;8.820;2023-08-08T15:02:03;26.40;41.00
48043;DHT22;33988;47.992;8.820;2023-08-08T15:04:30;26.40;40.90
48043;DHT22;33988;47.992;8.820;2023-08-08T15:07:02;26.40;41.00
48043;DHT22;33988;47.992;8.820;2023-08-08T15:09:31;26.40;40.90
48043;DHT22;33988;47.992;8.820;2023-08-08T15:11:59;26.30;41.00
48043;DHT22;33988;47.992;8.820;2023-08-08T15:14:29;26.30;41.40
48043;DHT22;33988;47.992;8.820;2023-08-08T15:17:01;26.30;41.70
48043;DHT22;33988;47.992;8.820;2023-08-08T15:19:31;26.30;42.40
48043;DHT22;33988;47.992;8.820;2023-08-08T15:22:06;26.30;41.80
48043;DHT22;33988;47.992;8.820;2023-08-08T15:24:40;26.30;41.90
48043;DHT22;33988;47.992;8.820;2023-08-08T15:27:12;26.30;41.80
48043;DHT22;33988;47.992;8.820;2023-08-08T15:29:39;26.30;42.10
48043;DHT22;33988;47.992;8.820;2023-08-08T15:32:06;26.30;42.20
48043;DHT22;33988;47.992;8.820;2023-08-08T15:34:35;26.30;42.20
48043;DHT22;33988;47.992;8.820;2023-08-08T15:37:05;26.20;42.00
48043;DHT22;33988;47.992;8.820;2023-08-08T15:39:34;26.20;41.80
48043;DHT22;33988;47.992;8.820;2023-08-08T15:42:04;26.20;41.80
48043;DHT22;33988;47.992;8.820;2023-08-08T15:44:34;26.20;41.80
48043;DHT22;33988;47.992;8.820;2023-08-08T15:47:04;26.10;41.80
48043;DHT22;33988;47.992;8.820;2023-08-08T15:49:35;26.10;42.00